SHMÚ vydal meteorologické výstrahy na Low temperatures Display warnings

METAR

Aeronautical MET Report METAR

METAR description (Slovak)

06.03.2021 - 17:00 UTC

METAR LZIB 061700Z 30005KT CAVOK 04/M09 Q1031 NOSIG=
METAR LZKZ 061700Z 12004KT CAVOK M01/M07 Q1029 NOSIG=
METAR LZPP 061700Z 29004KT CAVOK 01/M06 Q1030=
METAR LZTT 061700Z 25010KT 9999 FEW050 M02/M10 Q1027 NOSIG=
METAR LZZI 061700Z VRB02KT 9999 FEW058 00/M07 Q1029=

06.03.2021 - 16:30 UTC

METAR LZIB 061630Z 29007KT CAVOK 04/M09 Q1031 NOSIG=
METAR LZKZ 061630Z 11004KT CAVOK M00/M08 Q1029 NOSIG=
METAR LZPP 061630Z 27005KT CAVOK 03/M07 Q1030=
METAR LZTT 061630Z 25011KT 9999 FEW050 M02/M10 Q1026 NOSIG=
METAR LZZI 061630Z 28002KT 9999 FEW055 02/M08 Q1029=

Správy METAR z vojenských meteorologických staníc (MIL)
SHMÚ nezodpovedá za ich obsah.

06.03.2021 - 17:00 UTC

METAR 061700Z
METAR LZMC 061700Z 00000KT CAVOK 02/M08 Q1031=

06.03.2021 - 17:00 UTC

METAR LZSL 061700Z 20004KT CAVOK 00/M07 Q1029=

06.03.2021 - 17:00 UTC

METAR 061700Z
METAR LZPW 061700Z 00000KT CAVOK 01/M09 Q1029=

06.03.2021 - 16:00 UTC

METAR LZSL 061600Z 35008KT CAVOK 04/M11 Q1029=

06.03.2021 - 16:00 UTC

METAR 061600Z
METAR LZPW 061600Z 29004KT CAVOK 02/M08 Q1028=

06.03.2021 - 16:00 UTC

METAR 061600Z
METAR LZMC 061600Z 33006KT CAVOK 04/M09 Q1031=